sensor_id;sensor_type;location;lat;lon;timestamp;temperature;humidity
23987;DHT22;12514;52.140;5.602;2022-07-19T00:02:05;22.70;99.90
23987;DHT22;12514;52.140;5.602;2022-07-19T00:04:32;22.70;99.90
23987;DHT22;12514;52.140;5.602;2022-07-19T00:06:58;22.70;99.90
23987;DHT22;12514;52.140;5.602;2022-07-19T00:09:24;22.50;99.90
23987;DHT22;12514;52.140;5.602;2022-07-19T00:11:51;22.40;99.90
23987;DHT22;12514;52.140;5.602;2022-07-19T00:14:17;22.40;99.90
23987;DHT22;12514;52.140;5.602;2022-07-19T00:16:43;22.50;99.90
23987;DHT22;12514;52.140;5.602;2022-07-19T00:19:08;22.50;99.90
23987;DHT22;12514;52.140;5.602;2022-07-19T00:21:34;22.60;99.90
23987;DHT22;12514;52.140;5.602;2022-07-19T00:23:59;22.50;99.90
23987;DHT22;12514;52.140;5.602;2022-07-19T00:26:29;22.50;99.90
23987;DHT22;12514;52.140;5.602;2022-07-19T00:28:55;22.40;99.90
23987;DHT22;12514;52.140;5.602;2022-07-19T00:31:22;22.30;99.90
23987;DHT22;12514;52.140;5.602;2022-07-19T00:33:48;22.20;99.90
23987;DHT22;12514;52.140;5.602;2022-07-19T00:36:13;22.10;99.90
23987;DHT22;12514;52.140;5.602;2022-07-19T00:38:39;21.80;99.90
23987;DHT22;12514;52.140;5.602;2022-07-19T00:44:27;20.90;99.90
23987;DHT22;12514;52.140;5.602;2022-07-19T00:46:52;21.30;99.90
23987;DHT22;12514;52.140;5.602;2022-07-19T00:49:18;21.60;99.90
23987;DHT22;12514;52.140;5.602;2022-07-19T00:51:44;21.70;99.90
23987;DHT22;12514;52.140;5.602;2022-07-19T00:54:12;21.80;99.90
23987;DHT22;12514;52.140;5.602;2022-07-19T00:56:38;21.70;99.90
23987;DHT22;12514;52.140;5.602;2022-07-19T00:59:05;21.70;99.90
23987;DHT22;12514;52.140;5.602;2022-07-19T01:01:33;21.70;99.90
23987;DHT22;12514;52.140;5.602;2022-07-19T01:03:59;21.60;99.90
23987;DHT22;12514;52.140;5.602;2022-07-19T01:06:25;21.70;99.90
23987;DHT22;12514;52.140;5.602;2022-07-19T01:08:51;21.80;99.90
23987;DHT22;12514;52.140;5.602;2022-07-19T01:14:38;21.70;99.90
23987;DHT22;12514;52.140;5.602;2022-07-19T01:17:04;21.60;99.90
23987;DHT22;12514;52.140;5.602;2022-07-19T01:19:30;21.60;99.90
23987;DHT22;12514;52.140;5.602;2022-07-19T01:21:55;21.50;99.90
23987;DHT22;12514;52.140;5.602;2022-07-19T01:24:21;21.50;99.90
23987;DHT22;12514;52.140;5.602;2022-07-19T01:26:47;21.60;99.90
23987;DHT22;12514;52.140;5.602;2022-07-19T01:29:16;21.50;99.90
23987;DHT22;12514;52.140;5.602;2022-07-19T01:31:42;21.60;99.90
23987;DHT22;12514;52.140;5.602;2022-07-19T01:34:08;21.60;99.90
23987;DHT22;12514;52.140;5.602;2022-07-19T01:36:34;21.50;99.90
23987;DHT22;12514;52.140;5.602;2022-07-19T01:39:00;21.40;99.90
23987;DHT22;12514;52.140;5.602;2022-07-19T01:44:47;21.30;99.90
23987;DHT22;12514;52.140;5.602;2022-07-19T01:47:13;21.30;99.90
23987;DHT22;12514;52.140;5.602;2022-07-19T01:49:38;21.40;99.90
23987;DHT22;12514;52.140;5.602;2022-07-19T01:52:04;21.20;99.90
23987;DHT22;12514;52.140;5.602;2022-07-19T01:54:30;21.10;99.90
23987;DHT22;12514;52.140;5.602;2022-07-19T01:56:56;21.00;99.90
23987;DHT22;12514;52.140;5.602;2022-07-19T01:59:21;21.10;99.90
23987;DHT22;12514;52.140;5.602;2022-07-19T02:01:47;21.00;99.90
23987;DHT22;12514;52.140;5.602;2022-07-19T02:04:12;21.00;99.90
23987;DHT22;12514;52.140;5.602;2022-07-19T02:06:38;21.00;99.90
23987;DHT22;12514;52.140;5.602;2022-07-19T02:09:03;21.00;99.90
23987;DHT22;12514;52.140;5.602;2022-07-19T02:14:51;20.90;99.90
23987;DHT22;12514;52.140;5.602;2022-07-19T02:17:17;20.90;99.90
23987;DHT22;12514;52.140;5.602;2022-07-19T02:19:42;20.90;99.90
23987;DHT22;12514;52.140;5.602;2022-07-19T02:22:08;20.80;99.90
23987;DHT22;12514;52.140;5.602;2022-07-19T02:24:33;20.80;99.90
23987;DHT22;12514;52.140;5.602;2022-07-19T02:26:59;20.70;99.90
23987;DHT22;12514;52.140;5.602;2022-07-19T02:29:24;20.60;99.90
23987;DHT22;12514;52.140;5.602;2022-07-19T02:31:50;20.60;99.90
23987;DHT22;12514;52.140;5.602;2022-07-19T02:34:15;20.60;99.90
23987;DHT22;12514;52.140;5.602;2022-07-19T02:36:41;20.70;99.90
23987;DHT22;12514;52.140;5.602;2022-07-19T02:39:07;20.80;99.90
23987;DHT22;12514;52.140;5.602;2022-07-19T02:44:54;20.70;99.90
23987;DHT22;12514;52.140;5.602;2022-07-19T02:47:19;20.70;99.90
23987;DHT22;12514;52.140;5.602;2022-07-19T02:49:45;20.70;99.90
23987;DHT22;12514;52.140;5.602;2022-07-19T02:52:10;20.60;99.90
23987;DHT22;12514;52.140;5.602;2022-07-19T02:54:36;20.60;99.90
23987;DHT22;12514;52.140;5.602;2022-07-19T02:57:02;20.60;99.90
23987;DHT22;12514;52.140;5.602;2022-07-19T02:59:27;20.60;99.90
23987;DHT22;12514;52.140;5.602;2022-07-19T03:01:53;20.50;99.90
23987;DHT22;12514;52.140;5.602;2022-07-19T03:04:18;20.50;99.90
23987;DHT22;12514;52.140;5.602;2022-07-19T03:06:45;20.50;99.90
23987;DHT22;12514;52.140;5.602;2022-07-19T03:09:10;20.40;99.90
23987;DHT22;12514;52.140;5.602;2022-07-19T03:14:59;20.40;99.90
23987;DHT22;12514;52.140;5.602;2022-07-19T03:17:24;20.30;99.90
23987;DHT22;12514;52.140;5.602;2022-07-19T03:19:50;20.30;99.90
23987;DHT22;12514;52.140;5.602;2022-07-19T03:22:16;20.30;99.90
23987;DHT22;12514;52.140;5.602;2022-07-19T03:24:41;20.20;99.90
23987;DHT22;12514;52.140;5.602;2022-07-19T03:27:07;20.20;99.90
23987;DHT22;12514;52.140;5.602;2022-07-19T03:29:32;20.20;99.90
23987;DHT22;12514;52.140;5.602;2022-07-19T03:31:58;20.20;99.90
23987;DHT22;12514;52.140;5.602;2022-07-19T03:34:25;20.20;99.90
23987;DHT22;12514;52.140;5.602;2022-07-19T03:36:51;20.20;99.90
23987;DHT22;12514;52.140;5.602;2022-07-19T03:39:16;20.10;99.90
23987;DHT22;12514;52.140;5.602;2022-07-19T03:45:04;20.20;99.90
23987;DHT22;12514;52.140;5.602;2022-07-19T03:47:30;20.00;99.90
23987;DHT22;12514;52.140;5.602;2022-07-19T03:49:56;20.00;99.90
23987;DHT22;12514;52.140;5.602;2022-07-19T03:52:23;20.00;99.90
23987;DHT22;12514;52.140;5.602;2022-07-19T03:54:49;20.10;99.90
23987;DHT22;12514;52.140;5.602;2022-07-19T03:57:14;20.10;99.90
23987;DHT22;12514;52.140;5.602;2022-07-19T03:59:40;20.10;99.90
23987;DHT22;12514;52.140;5.602;2022-07-19T04:02:05;20.10;99.90
23987;DHT22;12514;52.140;5.602;2022-07-19T04:04:31;20.00;99.90
23987;DHT22;12514;52.140;5.602;2022-07-19T04:06:57;20.00;99.90
23987;DHT22;12514;52.140;5.602;2022-07-19T04:09:23;20.00;99.90
23987;DHT22;12514;52.140;5.602;2022-07-19T04:15:24;20.10;99.90
23987;DHT22;12514;52.140;5.602;2022-07-19T04:17:49;20.00;99.90
23987;DHT22;12514;52.140;5.602;2022-07-19T04:20:15;20.10;99.90
23987;DHT22;12514;52.140;5.602;2022-07-19T04:22:40;20.00;99.90
23987;DHT22;12514;52.140;5.602;2022-07-19T04:25:06;20.10;99.90
23987;DHT22;12514;52.140;5.602;2022-07-19T04:27:32;20.20;99.90
23987;DHT22;12514;52.140;5.602;2022-07-19T04:29:58;20.20;99.90
23987;DHT22;12514;52.140;5.602;2022-07-19T04:32:24;20.10;99.90
23987;DHT22;12514;52.140;5.602;2022-07-19T04:34:49;20.10;99.90
23987;DHT22;12514;52.140;5.602;2022-07-19T04:37:15;20.20;99.90
23987;DHT22;12514;52.140;5.602;2022-07-19T04:39:41;20.20;99.90
23987;DHT22;12514;52.140;5.602;2022-07-19T04:45:29;20.30;99.90
23987;DHT22;12514;52.140;5.602;2022-07-19T04:47:55;20.20;99.90
23987;DHT22;12514;52.140;5.602;2022-07-19T04:50:21;20.30;99.90
23987;DHT22;12514;52.140;5.602;2022-07-19T04:52:46;20.40;99.90
23987;DHT22;12514;52.140;5.602;2022-07-19T04:55:12;20.40;99.90
23987;DHT22;12514;52.140;5.602;2022-07-19T04:57:38;20.40;99.90
23987;DHT22;12514;52.140;5.602;2022-07-19T05:00:06;20.40;99.90
23987;DHT22;12514;52.140;5.602;2022-07-19T05:02:34;20.50;99.90
23987;DHT22;12514;52.140;5.602;2022-07-19T05:05:00;20.50;99.90
23987;DHT22;12514;52.140;5.602;2022-07-19T05:07:25;20.70;99.90
23987;DHT22;12514;52.140;5.602;2022-07-19T05:09:51;20.80;99.90
23987;DHT22;12514;52.140;5.602;2022-07-19T05:15:38;21.20;99.90
23987;DHT22;12514;52.140;5.602;2022-07-19T05:18:04;21.10;99.90
23987;DHT22;12514;52.140;5.602;2022-07-19T05:20:29;21.20;99.90
23987;DHT22;12514;52.140;5.602;2022-07-19T05:22:55;21.20;99.90
23987;DHT22;12514;52.140;5.602;2022-07-19T05:25:21;21.30;99.90
23987;DHT22;12514;52.140;5.602;2022-07-19T05:27:46;21.30;99.90
23987;DHT22;12514;52.140;5.602;2022-07-19T05:30:12;21.40;99.90
23987;DHT22;12514;52.140;5.602;2022-07-19T05:32:38;21.50;99.90
23987;DHT22;12514;52.140;5.602;2022-07-19T05:35:04;21.60;99.90
23987;DHT22;12514;52.140;5.602;2022-07-19T05:37:30;21.70;99.90
23987;DHT22;12514;52.140;5.602;2022-07-19T05:39:55;21.70;99.90
23987;DHT22;12514;52.140;5.602;2022-07-19T05:45:43;22.10;99.90
23987;DHT22;12514;52.140;5.602;2022-07-19T05:48:09;22.10;99.90
23987;DHT22;12514;52.140;5.602;2022-07-19T05:50:35;22.10;99.90
23987;DHT22;12514;52.140;5.602;2022-07-19T05:53:00;22.30;99.90
23987;DHT22;12514;52.140;5.602;2022-07-19T05:55:26;22.20;99.90
23987;DHT22;12514;52.140;5.602;2022-07-19T05:57:52;22.50;99.90
23987;DHT22;12514;52.140;5.602;2022-07-19T06:00:17;22.50;99.90
23987;DHT22;12514;52.140;5.602;2022-07-19T06:02:43;22.70;99.90
23987;DHT22;12514;52.140;5.602;2022-07-19T06:05:09;22.90;99.90
23987;DHT22;12514;52.140;5.602;2022-07-19T06:07:34;23.00;99.90
23987;DHT22;12514;52.140;5.602;2022-07-19T06:10:00;22.90;99.90
23987;DHT22;12514;52.140;5.602;2022-07-19T06:15:48;23.20;99.90
23987;DHT22;12514;52.140;5.602;2022-07-19T06:18:15;23.40;99.90
23987;DHT22;12514;52.140;5.602;2022-07-19T06:20:41;23.40;99.90
23987;DHT22;12514;52.140;5.602;2022-07-19T06:23:06;23.50;99.90
23987;DHT22;12514;52.140;5.602;2022-07-19T06:25:32;23.70;99.90
23987;DHT22;12514;52.140;5.602;2022-07-19T06:27:58;23.80;99.90
23987;DHT22;12514;52.140;5.602;2022-07-19T06:30:24;23.90;99.90
23987;DHT22;12514;52.140;5.602;2022-07-19T06:32:50;24.00;99.90
23987;DHT22;12514;52.140;5.602;2022-07-19T06:35:15;24.20;99.90
23987;DHT22;12514;52.140;5.602;2022-07-19T06:37:41;24.20;99.90
23987;DHT22;12514;52.140;5.602;2022-07-19T06:40:07;24.40;99.90
23987;DHT22;12514;52.140;5.602;2022-07-19T06:45:55;24.50;99.90
23987;DHT22;12514;52.140;5.602;2022-07-19T06:48:23;24.60;99.90
23987;DHT22;12514;52.140;5.602;2022-07-19T06:50:49;24.70;99.90
23987;DHT22;12514;52.140;5.602;2022-07-19T06:53:15;24.80;99.90
23987;DHT22;12514;52.140;5.602;2022-07-19T06:55:53;24.90;99.90
23987;DHT22;12514;52.140;5.602;2022-07-19T06:58:19;25.20;99.90
23987;DHT22;12514;52.140;5.602;2022-07-19T07:00:45;25.10;99.90
23987;DHT22;12514;52.140;5.602;2022-07-19T07:03:14;25.10;99.90
23987;DHT22;12514;52.140;5.602;2022-07-19T07:05:40;25.20;99.90
23987;DHT22;12514;52.140;5.602;2022-07-19T07:08:05;25.30;99.90
23987;DHT22;12514;52.140;5.602;2022-07-19T07:10:31;25.30;99.90
23987;DHT22;12514;52.140;5.602;2022-07-19T07:16:19;25.50;99.90
23987;DHT22;12514;52.140;5.602;2022-07-19T07:18:45;25.70;99.90
23987;DHT22;12514;52.140;5.602;2022-07-19T07:21:10;25.90;99.90
23987;DHT22;12514;52.140;5.602;2022-07-19T07:23:36;26.00;99.90
23987;DHT22;12514;52.140;5.602;2022-07-19T07:26:01;26.10;99.90
23987;DHT22;12514;52.140;5.602;2022-07-19T07:28:27;26.30;99.90
23987;DHT22;12514;52.140;5.602;2022-07-19T07:30:54;26.40;99.90
23987;DHT22;12514;52.140;5.602;2022-07-19T07:33:19;26.50;99.90
23987;DHT22;12514;52.140;5.602;2022-07-19T07:35:49;26.60;99.90
23987;DHT22;12514;52.140;5.602;2022-07-19T07:38:14;26.70;99.90
23987;DHT22;12514;52.140;5.602;2022-07-19T07:40:40;26.80;99.90
23987;DHT22;12514;52.140;5.602;2022-07-19T07:46:27;27.00;99.90
23987;DHT22;12514;52.140;5.602;2022-07-19T07:48:53;27.10;99.90
23987;DHT22;12514;52.140;5.602;2022-07-19T07:51:19;27.20;99.90
23987;DHT22;12514;52.140;5.602;2022-07-19T07:53:44;27.30;99.90
23987;DHT22;12514;52.140;5.602;2022-07-19T07:56:10;27.40;99.90
23987;DHT22;12514;52.140;5.602;2022-07-19T07:58:35;27.50;99.90
23987;DHT22;12514;52.140;5.602;2022-07-19T08:01:01;27.60;99.90
23987;DHT22;12514;52.140;5.602;2022-07-19T08:03:27;27.50;99.90
23987;DHT22;12514;52.140;5.602;2022-07-19T08:05:52;27.60;99.90
23987;DHT22;12514;52.140;5.602;2022-07-19T08:08:18;27.70;99.90
23987;DHT22;12514;52.140;5.602;2022-07-19T08:10:44;27.90;99.90
23987;DHT22;12514;52.140;5.602;2022-07-19T08:16:31;28.10;99.90
23987;DHT22;12514;52.140;5.602;2022-07-19T08:18:57;28.10;99.90
23987;DHT22;12514;52.140;5.602;2022-07-19T08:21:23;28.20;99.70
23987;DHT22;12514;52.140;5.602;2022-07-19T08:23:49;28.30;99.90
23987;DHT22;12514;52.140;5.602;2022-07-19T08:26:14;28.40;99.20
23987;DHT22;12514;52.140;5.602;2022-07-19T08:28:40;28.50;99.50
23987;DHT22;12514;52.140;5.602;2022-07-19T08:31:06;28.60;99.70
23987;DHT22;12514;52.140;5.602;2022-07-19T08:33:31;28.80;98.70
23987;DHT22;12514;52.140;5.602;2022-07-19T08:35:57;28.90;97.50
23987;DHT22;12514;52.140;5.602;2022-07-19T08:38:23;28.80;96.80
23987;DHT22;12514;52.140;5.602;2022-07-19T08:40:50;28.90;96.50
23987;DHT22;12514;52.140;5.602;2022-07-19T08:46:40;29.20;94.60
23987;DHT22;12514;52.140;5.602;2022-07-19T08:49:08;29.40;94.10
23987;DHT22;12514;52.140;5.602;2022-07-19T08:51:34;29.60;93.20
23987;DHT22;12514;52.140;5.602;2022-07-19T08:54:00;29.80;93.40
23987;DHT22;12514;52.140;5.602;2022-07-19T08:56:27;29.90;92.00
23987;DHT22;12514;52.140;5.602;2022-07-19T08:59:11;30.00;91.90
23987;DHT22;12514;52.140;5.602;2022-07-19T09:01:37;30.10;91.30
23987;DHT22;12514;52.140;5.602;2022-07-19T09:09:09;30.30;88.20
23987;DHT22;12514;52.140;5.602;2022-07-19T09:11:40;30.40;88.70
23987;DHT22;12514;52.140;5.602;2022-07-19T09:14:14;30.50;90.20
23987;DHT22;12514;52.140;5.602;2022-07-19T09:17:14;30.70;88.20
23987;DHT22;12514;52.140;5.602;2022-07-19T09:19:45;30.80;87.20
23987;DHT22;12514;52.140;5.602;2022-07-19T09:22:13;30.80;85.10
23987;DHT22;12514;52.140;5.602;2022-07-19T09:24:41;30.90;84.00
23987;DHT22;12514;52.140;5.602;2022-07-19T09:27:09;31.00;85.60
23987;DHT22;12514;52.140;5.602;2022-07-19T09:29:41;31.10;84.30
23987;DHT22;12514;52.140;5.602;2022-07-19T09:34:34;31.40;83.70
23987;DHT22;12514;52.140;5.602;2022-07-19T09:37:33;31.50;82.10
23987;DHT22;12514;52.140;5.602;2022-07-19T09:40:06;31.60;83.50
23987;DHT22;12514;52.140;5.602;2022-07-19T09:42:43;31.60;84.40
23987;DHT22;12514;52.140;5.602;2022-07-19T09:45:11;31.70;83.10
23987;DHT22;12514;52.140;5.602;2022-07-19T09:47:41;31.90;83.80
23987;DHT22;12514;52.140;5.602;2022-07-19T09:50:15;31.90;84.20
23987;DHT22;12514;52.140;5.602;2022-07-19T09:52:43;32.00;81.30
23987;DHT22;12514;52.140;5.602;2022-07-19T09:55:10;32.10;81.50
23987;DHT22;12514;52.140;5.602;2022-07-19T09:57:40;32.20;82.30
23987;DHT22;12514;52.140;5.602;2022-07-19T10:00:07;32.30;79.90
23987;DHT22;12514;52.140;5.602;2022-07-19T10:02:41;32.30;80.20
23987;DHT22;12514;52.140;5.602;2022-07-19T10:05:09;32.40;80.70
23987;DHT22;12514;52.140;5.602;2022-07-19T10:07:36;32.50;81.40
23987;DHT22;12514;52.140;5.602;2022-07-19T10:10:06;32.50;79.50
23987;DHT22;12514;52.140;5.602;2022-07-19T10:12:32;32.60;76.00
23987;DHT22;12514;52.140;5.602;2022-07-19T10:14:59;32.70;76.80
23987;DHT22;12514;52.140;5.602;2022-07-19T10:17:34;32.80;76.50
23987;DHT22;12514;52.140;5.602;2022-07-19T10:20:01;32.90;75.10
23987;DHT22;12514;52.140;5.602;2022-07-19T10:22:28;33.00;77.60
23987;DHT22;12514;52.140;5.602;2022-07-19T10:24:56;33.00;77.60
23987;DHT22;12514;52.140;5.602;2022-07-19T10:32:28;33.20;75.30
23987;DHT22;12514;52.140;5.602;2022-07-19T10:37:52;33.30;73.10
23987;DHT22;12514;52.140;5.602;2022-07-19T10:40:37;33.40;75.00
23987;DHT22;12514;52.140;5.602;2022-07-19T10:43:05;33.40;76.80
23987;DHT22;12514;52.140;5.602;2022-07-19T10:45:32;33.40;76.30
23987;DHT22;12514;52.140;5.602;2022-07-19T10:48:09;33.60;77.00
23987;DHT22;12514;52.140;5.602;2022-07-19T10:50:52;33.70;76.90
23987;DHT22;12514;52.140;5.602;2022-07-19T10:56:18;33.70;76.30
23987;DHT22;12514;52.140;5.602;2022-07-19T10:58:49;33.70;76.10
23987;DHT22;12514;52.140;5.602;2022-07-19T11:01:16;33.80;76.00
23987;DHT22;12514;52.140;5.602;2022-07-19T11:03:43;33.90;74.30
23987;DHT22;12514;52.140;5.602;2022-07-19T11:06:08;33.90;72.40
23987;DHT22;12514;52.140;5.602;2022-07-19T11:08:43;34.00;71.20
23987;DHT22;12514;52.140;5.602;2022-07-19T11:11:11;34.00;70.50
23987;DHT22;12514;52.140;5.602;2022-07-19T11:13:39;34.00;69.60
23987;DHT22;12514;52.140;5.602;2022-07-19T11:16:05;34.00;69.00
23987;DHT22;12514;52.140;5.602;2022-07-19T11:18:34;34.20;69.60
23987;DHT22;12514;52.140;5.602;2022-07-19T11:21:01;34.30;68.50
23987;DHT22;12514;52.140;5.602;2022-07-19T11:23:33;34.30;68.50
23987;DHT22;12514;52.140;5.602;2022-07-19T11:26:25;34.50;69.10
23987;DHT22;12514;52.140;5.602;2022-07-19T11:28:52;34.50;69.00
23987;DHT22;12514;52.140;5.602;2022-07-19T11:31:23;34.50;69.40
23987;DHT22;12514;52.140;5.602;2022-07-19T11:33:51;34.50;69.30
23987;DHT22;12514;52.140;5.602;2022-07-19T11:36:19;34.60;69.50
23987;DHT22;12514;52.140;5.602;2022-07-19T11:41:28;34.70;66.90
23987;DHT22;12514;52.140;5.602;2022-07-19T11:46:29;34.70;67.20
23987;DHT22;12514;52.140;5.602;2022-07-19T11:48:57;34.80;68.70
23987;DHT22;12514;52.140;5.602;2022-07-19T11:51:23;34.90;67.50
23987;DHT22;12514;52.140;5.602;2022-07-19T11:53:51;35.00;66.40
23987;DHT22;12514;52.140;5.602;2022-07-19T11:56:22;34.90;66.40
23987;DHT22;12514;52.140;5.602;2022-07-19T11:58:49;35.00;65.80
23987;DHT22;12514;52.140;5.602;2022-07-19T12:01:32;35.00;67.40
23987;DHT22;12514;52.140;5.602;2022-07-19T12:06:37;35.30;66.70
23987;DHT22;12514;52.140;5.602;2022-07-19T12:09:05;35.30;64.50
23987;DHT22;12514;52.140;5.602;2022-07-19T12:11:44;35.20;62.80
23987;DHT22;12514;52.140;5.602;2022-07-19T12:14:36;35.30;63.70
23987;DHT22;12514;52.140;5.602;2022-07-19T12:17:21;35.30;65.40
23987;DHT22;12514;52.140;5.602;2022-07-19T12:19:52;35.40;65.70
23987;DHT22;12514;52.140;5.602;2022-07-19T12:22:34;35.30;66.00
23987;DHT22;12514;52.140;5.602;2022-07-19T12:24:59;35.40;67.00
23987;DHT22;12514;52.140;5.602;2022-07-19T12:27:25;35.50;66.50
23987;DHT22;12514;52.140;5.602;2022-07-19T12:29:58;35.50;64.60
23987;DHT22;12514;52.140;5.602;2022-07-19T12:32:38;35.60;64.50
23987;DHT22;12514;52.140;5.602;2022-07-19T12:35:10;35.60;65.60
23987;DHT22;12514;52.140;5.602;2022-07-19T12:37:41;35.70;65.20
23987;DHT22;12514;52.140;5.602;2022-07-19T12:40:09;35.60;64.80
23987;DHT22;12514;52.140;5.602;2022-07-19T12:42:58;35.50;65.00
23987;DHT22;12514;52.140;5.602;2022-07-19T12:45:38;35.70;64.30
23987;DHT22;12514;52.140;5.602;2022-07-19T12:48:05;35.80;63.20
23987;DHT22;12514;52.140;5.602;2022-07-19T12:50:37;35.90;63.00
23987;DHT22;12514;52.140;5.602;2022-07-19T12:53:05;35.90;62.80
23987;DHT22;12514;52.140;5.602;2022-07-19T12:55:32;36.00;64.20
23987;DHT22;12514;52.140;5.602;2022-07-19T12:57:59;36.00;65.30
23987;DHT22;12514;52.140;5.602;2022-07-19T13:00:28;36.10;63.90
23987;DHT22;12514;52.140;5.602;2022-07-19T13:02:55;36.10;61.30
23987;DHT22;12514;52.140;5.602;2022-07-19T13:05:22;36.10;61.50
23987;DHT22;12514;52.140;5.602;2022-07-19T13:07:48;36.10;61.90
23987;DHT22;12514;52.140;5.602;2022-07-19T13:10:14;36.10;61.40
23987;DHT22;12514;52.140;5.602;2022-07-19T13:12:40;36.20;60.20
23987;DHT22;12514;52.140;5.602;2022-07-19T13:15:07;36.30;60.80
23987;DHT22;12514;52.140;5.602;2022-07-19T13:17:33;36.40;61.30
23987;DHT22;12514;52.140;5.602;2022-07-19T13:19:59;36.40;61.30
23987;DHT22;12514;52.140;5.602;2022-07-19T13:22:25;36.30;61.30
23987;DHT22;12514;52.140;5.602;2022-07-19T13:24:50;36.40;59.70
23987;DHT22;12514;52.140;5.602;2022-07-19T13:27:16;36.60;60.50
23987;DHT22;12514;52.140;5.602;2022-07-19T13:29:43;36.70;59.20
23987;DHT22;12514;52.140;5.602;2022-07-19T13:32:09;36.70;59.00
23987;DHT22;12514;52.140;5.602;2022-07-19T13:34:36;36.70;60.20
23987;DHT22;12514;52.140;5.602;2022-07-19T13:37:02;36.90;60.20
23987;DHT22;12514;52.140;5.602;2022-07-19T13:39:27;36.90;61.80
23987;DHT22;12514;52.140;5.602;2022-07-19T13:41:53;36.90;59.90
23987;DHT22;12514;52.140;5.602;2022-07-19T13:44:19;36.80;61.00
23987;DHT22;12514;52.140;5.602;2022-07-19T13:46:44;37.00;61.10
23987;DHT22;12514;52.140;5.602;2022-07-19T13:49:10;37.00;60.30
23987;DHT22;12514;52.140;5.602;2022-07-19T13:51:36;37.00;60.10
23987;DHT22;12514;52.140;5.602;2022-07-19T13:54:01;37.20;60.40
23987;DHT22;12514;52.140;5.602;2022-07-19T13:59:49;37.00;58.50
23987;DHT22;12514;52.140;5.602;2022-07-19T14:02:14;37.00;58.80
23987;DHT22;12514;52.140;5.602;2022-07-19T14:04:40;37.10;59.10
23987;DHT22;12514;52.140;5.602;2022-07-19T14:07:05;37.00;58.90
23987;DHT22;12514;52.140;5.602;2022-07-19T14:09:31;37.00;58.50
23987;DHT22;12514;52.140;5.602;2022-07-19T14:15:18;37.10;57.80
23987;DHT22;12514;52.140;5.602;2022-07-19T14:17:44;37.10;58.40
23987;DHT22;12514;52.140;5.602;2022-07-19T14:20:11;37.10;58.60
23987;DHT22;12514;52.140;5.602;2022-07-19T14:22:36;37.10;58.50
23987;DHT22;12514;52.140;5.602;2022-07-19T14:25:02;37.10;58.00
23987;DHT22;12514;52.140;5.602;2022-07-19T14:27:28;37.10;58.50
23987;DHT22;12514;52.140;5.602;2022-07-19T14:29:53;37.20;57.80
23987;DHT22;12514;52.140;5.602;2022-07-19T14:32:19;37.20;57.20
23987;DHT22;12514;52.140;5.602;2022-07-19T14:34:44;37.20;57.30
23987;DHT22;12514;52.140;5.602;2022-07-19T14:37:10;37.20;57.40
23987;DHT22;12514;52.140;5.602;2022-07-19T14:39:36;37.10;57.40
23987;DHT22;12514;52.140;5.602;2022-07-19T14:45:23;37.00;57.20
23987;DHT22;12514;52.140;5.602;2022-07-19T14:47:49;37.10;57.70
23987;DHT22;12514;52.140;5.602;2022-07-19T14:50:15;37.20;58.00
23987;DHT22;12514;52.140;5.602;2022-07-19T14:52:41;37.20;58.50
23987;DHT22;12514;52.140;5.602;2022-07-19T14:55:08;37.30;58.60
23987;DHT22;12514;52.140;5.602;2022-07-19T14:57:34;37.10;57.80
23987;DHT22;12514;52.140;5.602;2022-07-19T15:00:02;37.20;58.00
23987;DHT22;12514;52.140;5.602;2022-07-19T15:02:28;37.20;58.00
23987;DHT22;12514;52.140;5.602;2022-07-19T15:04:54;37.30;58.20
23987;DHT22;12514;52.140;5.602;2022-07-19T15:07:22;37.30;57.60
23987;DHT22;12514;52.140;5.602;2022-07-19T15:09:47;37.30;57.70
23987;DHT22;12514;52.140;5.602;2022-07-19T15:15:35;37.30;56.70
23987;DHT22;12514;52.140;5.602;2022-07-19T15:18:01;37.40;56.50
23987;DHT22;12514;52.140;5.602;2022-07-19T15:20:26;37.40;57.00
23987;DHT22;12514;52.140;5.602;2022-07-19T15:22:52;37.30;56.50
23987;DHT22;12514;52.140;5.602;2022-07-19T15:25:18;37.30;56.10
23987;DHT22;12514;52.140;5.602;2022-07-19T15:27:48;37.30;54.50
23987;DHT22;12514;52.140;5.602;2022-07-19T15:30:16;37.30;54.20
23987;DHT22;12514;52.140;5.602;2022-07-19T15:32:42;37.40;53.60
23987;DHT22;12514;52.140;5.602;2022-07-19T15:35:08;37.30;53.30
23987;DHT22;12514;52.140;5.602;2022-07-19T15:37:33;37.20;53.80
23987;DHT22;12514;52.140;5.602;2022-07-19T15:39:59;37.20;54.10
23987;DHT22;12514;52.140;5.602;2022-07-19T15:45:47;37.10;53.10
23987;DHT22;12514;52.140;5.602;2022-07-19T15:48:13;37.10;53.70
23987;DHT22;12514;52.140;5.602;2022-07-19T15:50:38;37.10;54.00
23987;DHT22;12514;52.140;5.602;2022-07-19T15:53:04;37.30;54.50
23987;DHT22;12514;52.140;5.602;2022-07-19T15:55:30;37.30;54.00
23987;DHT22;12514;52.140;5.602;2022-07-19T15:57:56;37.40;54.40
23987;DHT22;12514;52.140;5.602;2022-07-19T16:00:21;37.30;54.20
23987;DHT22;12514;52.140;5.602;2022-07-19T16:02:47;37.40;54.30
23987;DHT22;12514;52.140;5.602;2022-07-19T16:05:13;37.40;54.00
23987;DHT22;12514;52.140;5.602;2022-07-19T16:07:39;37.50;52.80
23987;DHT22;12514;52.140;5.602;2022-07-19T16:12:40;37.40;53.90
23987;DHT22;12514;52.140;5.602;2022-07-19T16:15:08;37.50;53.90
23987;DHT22;12514;52.140;5.602;2022-07-19T16:17:34;37.50;53.40
23987;DHT22;12514;52.140;5.602;2022-07-19T16:20:00;37.40;52.40
23987;DHT22;12514;52.140;5.602;2022-07-19T16:22:26;37.40;51.00
23987;DHT22;12514;52.140;5.602;2022-07-19T16:24:54;37.40;50.50
23987;DHT22;12514;52.140;5.602;2022-07-19T16:27:20;37.40;50.10
23987;DHT22;12514;52.140;5.602;2022-07-19T16:29:45;37.40;49.90
23987;DHT22;12514;52.140;5.602;2022-07-19T16:32:12;37.40;49.50
23987;DHT22;12514;52.140;5.602;2022-07-19T16:34:38;37.40;50.60
23987;DHT22;12514;52.140;5.602;2022-07-19T16:37:04;37.40;50.30
23987;DHT22;12514;52.140;5.602;2022-07-19T16:39:37;37.50;50.90
23987;DHT22;12514;52.140;5.602;2022-07-19T16:42:06;37.40;50.70
23987;DHT22;12514;52.140;5.602;2022-07-19T16:44:32;37.50;50.70
23987;DHT22;12514;52.140;5.602;2022-07-19T16:46:58;37.40;50.10
23987;DHT22;12514;52.140;5.602;2022-07-19T16:49:24;37.50;50.30
23987;DHT22;12514;52.140;5.602;2022-07-19T16:51:50;37.40;50.00
23987;DHT22;12514;52.140;5.602;2022-07-19T16:54:16;37.30;50.70
23987;DHT22;12514;52.140;5.602;2022-07-19T16:56:42;37.30;51.50
23987;DHT22;12514;52.140;5.602;2022-07-19T16:59:08;37.30;51.20
23987;DHT22;12514;52.140;5.602;2022-07-19T17:01:34;37.30;52.40
23987;DHT22;12514;52.140;5.602;2022-07-19T17:03:59;37.30;51.30
23987;DHT22;12514;52.140;5.602;2022-07-19T17:06:28;37.10;50.90
23987;DHT22;12514;52.140;5.602;2022-07-19T17:09:00;37.10;51.00
23987;DHT22;12514;52.140;5.602;2022-07-19T17:11:25;37.00;51.00
23987;DHT22;12514;52.140;5.602;2022-07-19T17:13:51;37.00;50.70